Time;durP1;ratioP1;P1;durP2;ratioP2;P2;SDS_P1;SDS_P2;PMS_P1;PMS_P2;Temp;Humidity;BMP_temperature;BMP_pressure;BME280_temperature;BME280_humidity;BME280_pressure;Samples;Min_cycle;Max_cycle;Signal;HPM_P1;HPM_P2
2023/10/23 00:01:38;;;;;;;0.00;0.00;;;;;;;;;;4977468;28;20270;-67
2023/10/23 00:04:04;;;;;;;0.00;0.00;;;;;;;;;;4976939;28;20042;-66
2023/10/23 00:06:31;;;;;;;0.00;0.00;;;;;;;;;;4978081;28;20058;-66
2023/10/23 00:08:56;;;;;;;0.00;0.00;;;;;;;;;;4977042;28;20038;-66
2023/10/23 00:11:23;;;;;;;0.00;0.00;;;;;;;;;;4978098;28;20049;-66
2023/10/23 00:13:49;;;;;;;0.00;0.00;;;;;;;;;;4983683;28;20074;-66
2023/10/23 00:16:15;;;;;;;0.00;0.00;;;;;;;;;;4981652;28;20140;-66
2023/10/23 00:18:41;;;;;;;0.00;0.00;;;;;;;;;;4977585;28;20046;-67
2023/10/23 00:21:08;;;;;;;0.00;0.00;;;;;;;;;;4992067;28;20049;-67
2023/10/23 00:23:34;;;;;;;0.00;0.00;;;;;;;;;;4977608;28;20124;-66
2023/10/23 00:26:00;;;;;;;0.00;0.00;;;;;;;;;;4978846;28;20038;-67
2023/10/23 00:28:26;;;;;;;0.00;0.00;;;;;;;;;;4969646;28;20077;-66
2023/10/23 00:30:52;;;;;;;0.00;0.00;;;;;;;;;;4977301;28;20742;-66
2023/10/23 00:33:18;;;;;;;0.00;0.00;;;;;;;;;;4981471;28;20037;-66
2023/10/23 00:35:44;;;;;;;0.00;0.00;;;;;;;;;;4980800;28;20534;-67
2023/10/23 00:38:10;;;;;;;0.00;0.00;;;;;;;;;;4982652;28;20441;-66
2023/10/23 00:40:36;;;;;;;0.00;0.00;;;;;;;;;;4976087;28;20046;-66
2023/10/23 00:43:18;;;;;;;0.00;0.00;;;;;;;;;;4978159;28;20049;-66
2023/10/23 00:45:55;;;;;;;0.00;0.00;;;;;;;;;;4979014;28;20734;-66
2023/10/23 00:48:21;;;;;;;0.00;0.00;;;;;;;;;;4972776;28;20762;-66
2023/10/23 00:50:51;;;;;;;0.00;0.00;;;;;;;;;;4973876;28;20129;-66
2023/10/23 00:53:19;;;;;;;0.00;0.00;;;;;;;;;;4975590;28;20061;-66
2023/10/23 00:55:45;;;;;;;0.00;0.00;;;;;;;;;;4976101;28;20506;-66
2023/10/23 00:58:12;;;;;;;0.00;0.00;;;;;;;;;;4978052;28;20525;-65
2023/10/23 01:00:39;;;;;;;0.00;0.00;;;;;;;;;;4977729;28;20794;-66
2023/10/23 01:03:05;;;;;;;0.00;0.00;;;;;;;;;;4978051;28;20478;-66
2023/10/23 01:05:31;;;;;;;0.00;0.00;;;;;;;;;;4964876;28;20050;-66
2023/10/23 01:07:57;;;;;;;0.00;0.00;;;;;;;;;;4972938;28;20041;-66
2023/10/23 01:10:23;;;;;;;0.00;0.00;;;;;;;;;;4974657;28;20987;-66
2023/10/23 01:12:49;;;;;;;0.00;0.00;;;;;;;;;;4978120;28;20041;-66
2023/10/23 01:15:15;;;;;;;0.00;0.00;;;;;;;;;;4977580;28;20038;-66
2023/10/23 01:17:41;;;;;;;0.00;0.00;;;;;;;;;;4977100;28;20131;-66
2023/10/23 01:20:08;;;;;;;0.00;0.00;;;;;;;;;;4978876;28;20045;-66
2023/10/23 01:22:34;;;;;;;0.00;0.00;;;;;;;;;;4980225;28;20076;-66
2023/10/23 01:25:01;;;;;;;0.00;0.00;;;;;;;;;;4979722;28;20203;-66
2023/10/23 01:27:27;;;;;;;0.00;0.00;;;;;;;;;;4975055;28;20124;-66
2023/10/23 01:29:53;;;;;;;0.00;0.00;;;;;;;;;;4963588;28;21251;-66
2023/10/23 01:32:19;;;;;;;0.00;0.00;;;;;;;;;;4977915;28;20070;-66
2023/10/23 01:34:46;;;;;;;0.00;0.00;;;;;;;;;;4978768;28;20486;-66
2023/10/23 01:37:12;;;;;;;0.00;0.00;;;;;;;;;;4981057;28;20117;-67
2023/10/23 01:39:37;;;;;;;0.00;0.00;;;;;;;;;;4976535;28;20044;-66
2023/10/23 01:42:04;;;;;;;0.00;0.00;;;;;;;;;;4976745;28;20034;-66
2023/10/23 01:44:30;;;;;;;0.00;0.00;;;;;;;;;;4974822;28;20042;-66
2023/10/23 01:46:56;;;;;;;0.00;0.00;;;;;;;;;;4977731;28;20142;-66
2023/10/23 01:49:22;;;;;;;0.00;0.00;;;;;;;;;;4977213;28;20039;-66
2023/10/23 01:51:47;;;;;;;0.00;0.00;;;;;;;;;;4977592;28;20521;-66
2023/10/23 01:54:13;;;;;;;0.00;0.00;;;;;;;;;;4975106;28;20564;-66
2023/10/23 01:56:39;;;;;;;0.00;0.00;;;;;;;;;;4979577;28;20525;-66
2023/10/23 01:59:05;;;;;;;0.00;0.00;;;;;;;;;;4975614;28;20169;-66
2023/10/23 02:01:33;;;;;;;0.00;0.00;;;;;;;;;;4978426;28;20042;-66
2023/10/23 02:03:59;;;;;;;0.00;0.00;;;;;;;;;;4977155;28;20557;-66
2023/10/23 02:06:25;;;;;;;0.00;0.00;;;;;;;;;;4975538;28;20046;-69
2023/10/23 02:08:51;;;;;;;0.00;0.00;;;;;;;;;;4976308;28;20123;-69
2023/10/23 02:11:17;;;;;;;0.00;0.00;;;;;;;;;;4976417;28;20038;-70
2023/10/23 02:13:43;;;;;;;0.00;0.00;;;;;;;;;;4982591;28;20061;-69
2023/10/23 02:16:09;;;;;;;0.00;0.00;;;;;;;;;;4975157;28;20034;-69
2023/10/23 02:18:35;;;;;;;0.00;0.00;;;;;;;;;;4977355;28;20133;-69
2023/10/23 02:21:01;;;;;;;0.00;0.00;;;;;;;;;;4979272;28;20035;-70
2023/10/23 02:23:27;;;;;;;0.00;0.00;;;;;;;;;;4975395;28;20038;-69
2023/10/23 02:25:54;;;;;;;0.00;0.00;;;;;;;;;;4979960;28;20046;-70
2023/10/23 02:28:20;;;;;;;0.00;0.00;;;;;;;;;;4977151;28;20046;-70
2023/10/23 02:30:46;;;;;;;0.00;0.00;;;;;;;;;;4978301;28;20052;-69
2023/10/23 02:33:12;;;;;;;0.00;0.00;;;;;;;;;;4977221;28;20065;-68
2023/10/23 02:35:38;;;;;;;0.00;0.00;;;;;;;;;;4977151;28;21511;-71
2023/10/23 02:38:04;;;;;;;0.00;0.00;;;;;;;;;;4977456;28;20049;-70
2023/10/23 02:40:30;;;;;;;0.00;0.00;;;;;;;;;;4984510;28;20051;-70
2023/10/23 02:42:56;;;;;;;0.00;0.00;;;;;;;;;;4979487;28;20085;-70
2023/10/23 02:45:22;;;;;;;0.00;0.00;;;;;;;;;;4979185;28;20054;-71
2023/10/23 02:47:48;;;;;;;0.00;0.00;;;;;;;;;;4976684;28;20048;-69
2023/10/23 02:50:14;;;;;;;0.00;0.00;;;;;;;;;;4976594;28;20034;-71
2023/10/23 02:52:40;;;;;;;0.00;0.00;;;;;;;;;;4977472;28;20847;-71
2023/10/23 02:55:06;;;;;;;0.00;0.00;;;;;;;;;;4977172;28;20061;-71
2023/10/23 02:57:32;;;;;;;0.00;0.00;;;;;;;;;;4993010;28;20034;-69
2023/10/23 02:59:58;;;;;;;0.00;0.00;;;;;;;;;;4977498;28;20076;-70
2023/10/23 03:02:24;;;;;;;0.00;0.00;;;;;;;;;;4977036;28;20039;-69
2023/10/23 03:04:50;;;;;;;0.00;0.00;;;;;;;;;;4977584;28;20041;-70
2023/10/23 03:07:16;;;;;;;0.00;0.00;;;;;;;;;;4977193;28;20054;-67
2023/10/23 03:09:42;;;;;;;0.00;0.00;;;;;;;;;;4969220;28;20037;-67
2023/10/23 03:12:08;;;;;;;0.00;0.00;;;;;;;;;;4974310;28;20046;-67
2023/10/23 03:14:34;;;;;;;0.00;0.00;;;;;;;;;;4978494;28;20039;-67
2023/10/23 03:17:00;;;;;;;0.00;0.00;;;;;;;;;;4976389;28;20390;-66
2023/10/23 03:19:26;;;;;;;0.00;0.00;;;;;;;;;;4975437;28;20042;-67
2023/10/23 03:21:52;;;;;;;0.00;0.00;;;;;;;;;;4977612;28;20038;-66
2023/10/23 03:24:19;;;;;;;0.00;0.00;;;;;;;;;;4974468;28;20049;-67
2023/10/23 03:26:45;;;;;;;0.00;0.00;;;;;;;;;;4978431;28;20061;-66
2023/10/23 03:29:11;;;;;;;0.00;0.00;;;;;;;;;;4972045;28;20493;-67
2023/10/23 03:31:37;;;;;;;0.00;0.00;;;;;;;;;;4965612;28;20046;-67
2023/10/23 03:34:03;;;;;;;0.00;0.00;;;;;;;;;;4972359;28;20045;-67
2023/10/23 03:36:29;;;;;;;0.00;0.00;;;;;;;;;;4980167;28;21915;-67
2023/10/23 03:38:55;;;;;;;0.00;0.00;;;;;;;;;;4976983;28;20100;-66
2023/10/23 03:41:21;;;;;;;0.00;0.00;;;;;;;;;;4981471;28;20038;-66
2023/10/23 03:43:47;;;;;;;0.00;0.00;;;;;;;;;;4979509;28;20093;-66
2023/10/23 03:46:13;;;;;;;0.00;0.00;;;;;;;;;;4976479;28;20050;-66
2023/10/23 03:48:39;;;;;;;0.00;0.00;;;;;;;;;;4978690;28;20034;-66
2023/10/23 03:51:05;;;;;;;0.00;0.00;;;;;;;;;;4988006;28;20112;-67
2023/10/23 03:53:31;;;;;;;0.00;0.00;;;;;;;;;;4975523;28;20038;-66
2023/10/23 03:55:57;;;;;;;0.00;0.00;;;;;;;;;;4976960;28;20061;-67
2023/10/23 03:58:23;;;;;;;0.00;0.00;;;;;;;;;;4975683;28;20038;-66
2023/10/23 04:00:53;;;;;;;0.00;0.00;;;;;;;;;;4978229;28;20035;-67
2023/10/23 04:03:19;;;;;;;0.00;0.00;;;;;;;;;;4975858;28;20038;-67
2023/10/23 04:05:45;;;;;;;0.00;0.00;;;;;;;;;;4976387;28;20403;-66
2023/10/23 04:08:11;;;;;;;0.00;0.00;;;;;;;;;;4975576;28;20505;-66
2023/10/23 04:10:37;;;;;;;0.00;0.00;;;;;;;;;;4975494;28;20046;-66
2023/10/23 04:13:03;;;;;;;0.00;0.00;;;;;;;;;;4982550;28;20486;-67
2023/10/23 04:15:29;;;;;;;0.00;0.00;;;;;;;;;;4976489;28;20027;-66
2023/10/23 04:17:55;;;;;;;0.00;0.00;;;;;;;;;;4974817;28;21301;-67
2023/10/23 04:20:21;;;;;;;0.00;0.00;;;;;;;;;;4974509;28;20099;-66
2023/10/23 04:22:47;;;;;;;0.00;0.00;;;;;;;;;;4975842;28;20061;-66
2023/10/23 04:25:13;;;;;;;0.00;0.00;;;;;;;;;;4975154;28;20041;-67
2023/10/23 04:27:39;;;;;;;0.00;0.00;;;;;;;;;;4974848;28;20124;-68
2023/10/23 04:30:05;;;;;;;0.00;0.00;;;;;;;;;;4972343;28;20042;-67
2023/10/23 04:32:31;;;;;;;0.00;0.00;;;;;;;;;;4973729;28;20035;-67
2023/10/23 04:34:57;;;;;;;0.00;0.00;;;;;;;;;;4976112;28;20045;-66
2023/10/23 04:37:23;;;;;;;0.00;0.00;;;;;;;;;;4975687;28;20149;-67
2023/10/23 04:39:49;;;;;;;0.00;0.00;;;;;;;;;;4983538;28;20111;-66
2023/10/23 04:42:15;;;;;;;0.00;0.00;;;;;;;;;;4980358;28;20112;-67
2023/10/23 04:44:41;;;;;;;0.00;0.00;;;;;;;;;;4981148;28;20050;-67
2023/10/23 04:47:07;;;;;;;0.00;0.00;;;;;;;;;;4982821;28;20042;-66
2023/10/23 04:49:33;;;;;;;0.00;0.00;;;;;;;;;;4977689;28;20257;-67
2023/10/23 04:51:59;;;;;;;0.00;0.00;;;;;;;;;;4977106;28;20061;-67
2023/10/23 04:54:25;;;;;;;0.00;0.00;;;;;;;;;;4977421;28;20170;-67
2023/10/23 04:56:51;;;;;;;0.00;0.00;;;;;;;;;;4977151;28;20034;-67
2023/10/23 04:59:17;;;;;;;0.00;0.00;;;;;;;;;;4970875;28;20042;-66
2023/10/23 05:01:43;;;;;;;0.00;0.00;;;;;;;;;;4993389;28;20050;-67
2023/10/23 05:04:09;;;;;;;0.00;0.00;;;;;;;;;;4972701;28;20104;-66
2023/10/23 05:06:35;;;;;;;0.00;0.00;;;;;;;;;;4977038;28;20471;-67
2023/10/23 05:09:01;;;;;;;0.00;0.00;;;;;;;;;;4975756;28;20049;-67
2023/10/23 05:11:27;;;;;;;0.00;0.00;;;;;;;;;;4972574;28;21773;-67
2023/10/23 05:13:53;;;;;;;0.00;0.00;;;;;;;;;;4970177;28;20045;-67
2023/10/23 05:16:19;;;;;;;0.00;0.00;;;;;;;;;;4975849;28;20466;-66
2023/10/23 05:18:45;;;;;;;0.00;0.00;;;;;;;;;;4974894;28;20228;-66
2023/10/23 05:21:11;;;;;;;0.00;0.00;;;;;;;;;;4976784;28;20034;-67
2023/10/23 05:23:37;;;;;;;0.00;0.00;;;;;;;;;;4974999;28;20038;-67
2023/10/23 05:26:03;;;;;;;0.00;0.00;;;;;;;;;;4991040;28;20034;-67
2023/10/23 05:28:29;;;;;;;0.00;0.00;;;;;;;;;;4974180;28;20062;-67
2023/10/23 05:30:55;;;;;;;0.00;0.00;;;;;;;;;;4974703;28;20440;-67
2023/10/23 05:33:21;;;;;;;0.00;0.00;;;;;;;;;;4971376;28;20034;-67
2023/10/23 05:35:47;;;;;;;0.00;0.00;;;;;;;;;;4976748;28;20486;-66
2023/10/23 05:38:13;;;;;;;0.00;0.00;;;;;;;;;;4974973;28;20042;-70
2023/10/23 05:40:39;;;;;;;0.00;0.00;;;;;;;;;;4978913;28;20038;-70
2023/10/23 05:43:05;;;;;;;0.00;0.00;;;;;;;;;;4973974;28;20053;-70
2023/10/23 05:45:31;;;;;;;0.00;0.00;;;;;;;;;;4976339;28;20053;-71
2023/10/23 05:47:57;;;;;;;0.00;0.00;;;;;;;;;;4981212;28;20042;-70
2023/10/23 05:50:23;;;;;;;0.00;0.00;;;;;;;;;;4975207;28;20034;-70
2023/10/23 05:52:49;;;;;;;0.00;0.00;;;;;;;;;;4975686;28;20035;-70
2023/10/23 05:55:15;;;;;;;0.00;0.00;;;;;;;;;;4976314;28;20478;-72
2023/10/23 05:57:41;;;;;;;0.00;0.00;;;;;;;;;;4973194;28;20069;-72
2023/10/23 06:00:10;;;;;;;0.00;0.00;;;;;;;;;;4972761;28;20033;-73
2023/10/23 06:02:36;;;;;;;0.00;0.00;;;;;;;;;;4974975;28;20045;-72
2023/10/23 06:05:03;;;;;;;0.00;0.00;;;;;;;;;;4974991;28;21805;-73
2023/10/23 06:07:29;;;;;;;0.00;0.00;;;;;;;;;;4976933;28;20112;-74
2023/10/23 06:09:56;;;;;;;0.00;0.00;;;;;;;;;;4976809;28;20133;-72
2023/10/23 06:12:22;;;;;;;0.00;0.00;;;;;;;;;;4975647;28;20038;-72
2023/10/23 06:14:48;;;;;;;0.00;0.00;;;;;;;;;;4978956;28;20088;-72
2023/10/23 06:17:14;;;;;;;0.00;0.00;;;;;;;;;;4976627;28;20046;-74
2023/10/23 06:19:40;;;;;;;0.00;0.00;;;;;;;;;;4971892;28;20042;-72
2023/10/23 06:22:06;;;;;;;0.00;0.00;;;;;;;;;;4983551;28;20042;-73
2023/10/23 06:24:32;;;;;;;0.00;0.00;;;;;;;;;;4975050;28;20042;-73
2023/10/23 06:26:58;;;;;;;0.00;0.00;;;;;;;;;;4976212;28;20049;-72
2023/10/23 06:29:25;;;;;;;0.00;0.00;;;;;;;;;;4975627;28;20108;-72
2023/10/23 06:31:51;;;;;;;0.00;0.00;;;;;;;;;;4976439;28;20757;-75
2023/10/23 06:34:17;;;;;;;0.00;0.00;;;;;;;;;;4975711;28;20045;-75
2023/10/23 06:36:43;;;;;;;0.00;0.00;;;;;;;;;;4978675;28;20045;-69
2023/10/23 06:39:09;;;;;;;0.00;0.00;;;;;;;;;;4976598;28;20042;-69
2023/10/23 06:41:35;;;;;;;0.00;0.00;;;;;;;;;;4976131;28;20568;-69
2023/10/23 06:44:01;;;;;;;0.00;0.00;;;;;;;;;;4978492;28;20042;-69
2023/10/23 06:46:27;;;;;;;0.00;0.00;;;;;;;;;;4974977;28;20046;-69
2023/10/23 06:48:53;;;;;;;0.00;0.00;;;;;;;;;;4978667;28;20041;-69
2023/10/23 06:51:19;;;;;;;0.00;0.00;;;;;;;;;;4977758;28;20384;-69
2023/10/23 06:53:45;;;;;;;0.00;0.00;;;;;;;;;;4978474;28;20034;-70
2023/10/23 06:56:11;;;;;;;0.00;0.00;;;;;;;;;;4976762;28;20045;-69
2023/10/23 06:58:37;;;;;;;0.00;0.00;;;;;;;;;;4978151;28;20034;-70
2023/10/23 07:01:09;;;;;;;0.00;0.00;;;;;;;;;;4977286;28;20035;-70
2023/10/23 07:03:36;;;;;;;0.00;0.00;;;;;;;;;;4983294;28;20121;-70
2023/10/23 07:06:08;;;;;;;0.00;0.00;;;;;;;;;;4975473;28;20069;-70
2023/10/23 07:08:36;;;;;;;0.00;0.00;;;;;;;;;;4983032;28;20646;-70
2023/10/23 07:11:03;;;;;;;0.00;0.00;;;;;;;;;;4972791;28;20050;-69
2023/10/23 07:13:29;;;;;;;0.00;0.00;;;;;;;;;;4976820;28;20038;-70
2023/10/23 07:15:55;;;;;;;0.00;0.00;;;;;;;;;;4976758;28;20069;-70
2023/10/23 07:18:21;;;;;;;0.00;0.00;;;;;;;;;;4976574;28;20120;-70
2023/10/23 07:20:57;;;;;;;0.00;0.00;;;;;;;;;;4976682;28;20093;-70
2023/10/23 07:23:23;;;;;;;0.00;0.00;;;;;;;;;;4974991;28;20097;-70
2023/10/23 07:25:59;;;;;;;0.00;0.00;;;;;;;;;;4977531;28;20068;-70
2023/10/23 07:28:25;;;;;;;0.00;0.00;;;;;;;;;;4975555;28;20031;-70
2023/10/23 07:30:51;;;;;;;0.00;0.00;;;;;;;;;;4992293;28;20659;-70
2023/10/23 07:33:16;;;;;;;0.00;0.00;;;;;;;;;;4982759;28;20119;-70
2023/10/23 07:35:42;;;;;;;0.00;0.00;;;;;;;;;;4976400;28;20039;-70
2023/10/23 07:38:08;;;;;;;0.00;0.00;;;;;;;;;;4973001;28;20045;-70
2023/10/23 07:40:42;;;;;;;0.00;0.00;;;;;;;;;;4991754;28;20038;-70
2023/10/23 07:43:08;;;;;;;0.00;0.00;;;;;;;;;;4976131;28;20030;-70
2023/10/23 07:45:38;;;;;;;0.00;0.00;;;;;;;;;;4975556;28;20427;-70
2023/10/23 07:48:04;;;;;;;0.00;0.00;;;;;;;;;;4976498;28;20557;-72
2023/10/23 07:50:32;;;;;;;0.00;0.00;;;;;;;;;;4983456;28;20458;-72
2023/10/23 07:52:58;;;;;;;0.00;0.00;;;;;;;;;;4976641;28;20038;-71
2023/10/23 07:55:24;;;;;;;0.00;0.00;;;;;;;;;;4975867;28;20039;-71
2023/10/23 07:57:50;;;;;;;0.00;0.00;;;;;;;;;;4977008;28;20037;-72
2023/10/23 08:00:16;;;;;;;0.00;0.00;;;;;;;;;;4975542;28;20118;-71
2023/10/23 08:02:42;;;;;;;0.00;0.00;;;;;;;;;;4976167;28;20118;-71
2023/10/23 08:05:08;;;;;;;0.00;0.00;;;;;;;;;;4973409;28;20038;-71
2023/10/23 08:07:34;;;;;;;0.00;0.00;;;;;;;;;;4977127;28;20144;-73
2023/10/23 08:10:00;;;;;;;0.00;0.00;;;;;;;;;;4980061;28;20042;-72
2023/10/23 08:12:26;;;;;;;0.00;0.00;;;;;;;;;;4975873;28;20049;-72
2023/10/23 08:14:52;;;;;;;0.00;0.00;;;;;;;;;;4978436;28;20042;-72
2023/10/23 08:17:18;;;;;;;0.00;0.00;;;;;;;;;;4975211;28;20038;-72
2023/10/23 08:19:44;;;;;;;0.00;0.00;;;;;;;;;;4991524;28;20046;-72
2023/10/23 08:22:10;;;;;;;0.00;0.00;;;;;;;;;;4974090;28;20187;-72
2023/10/23 08:24:36;;;;;;;0.00;0.00;;;;;;;;;;4978279;28;20100;-73
2023/10/23 08:27:02;;;;;;;0.00;0.00;;;;;;;;;;4975769;28;20045;-72
2023/10/23 08:29:28;;;;;;;0.00;0.00;;;;;;;;;;4991510;28;20042;-73
2023/10/23 08:31:54;;;;;;;0.00;0.00;;;;;;;;;;4994232;28;20043;-73
2023/10/23 08:34:23;;;;;;;0.00;0.00;;;;;;;;;;4976163;28;20498;-72
2023/10/23 08:36:49;;;;;;;0.00;0.00;;;;;;;;;;4975181;28;20126;-72
2023/10/23 08:39:15;;;;;;;0.00;0.00;;;;;;;;;;4974417;28;20030;-72
2023/10/23 08:41:41;;;;;;;0.00;0.00;;;;;;;;;;4981433;28;20034;-72
2023/10/23 08:44:07;;;;;;;0.00;0.00;;;;;;;;;;4981802;28;20053;-72
2023/10/23 08:46:34;;;;;;;0.00;0.00;;;;;;;;;;4991173;28;20070;-72
2023/10/23 08:49:03;;;;;;;0.00;0.00;;;;;;;;;;4997477;28;20030;-72
2023/10/23 08:51:32;;;;;;;0.00;0.00;;;;;;;;;;4985828;28;20042;-71
2023/10/23 08:54:17;;;;;;;0.00;0.00;;;;;;;;;;4977472;28;20045;-73
2023/10/23 08:56:44;;;;;;;0.00;0.00;;;;;;;;;;4989085;28;20050;-70
2023/10/23 08:59:11;;;;;;;0.00;0.00;;;;;;;;;;4978013;28;20042;-70
2023/10/23 09:01:37;;;;;;;0.00;0.00;;;;;;;;;;4984977;28;20051;-70
2023/10/23 09:04:03;;;;;;;0.00;0.00;;;;;;;;;;4977250;28;20121;-70
2023/10/23 09:06:30;;;;;;;0.00;0.00;;;;;;;;;;4984940;28;20129;-70
2023/10/23 09:08:56;;;;;;;0.00;0.00;;;;;;;;;;4974792;28;20134;-70
2023/10/23 09:11:36;;;;;;;0.00;0.00;;;;;;;;;;4975839;28;20136;-70
2023/10/23 09:14:02;;;;;;;0.00;0.00;;;;;;;;;;4977120;28;20104;-70
2023/10/23 09:16:28;;;;;;;0.00;0.00;;;;;;;;;;4985089;28;20510;-70
2023/10/23 09:18:55;;;;;;;0.00;0.00;;;;;;;;;;4978636;28;20046;-70
2023/10/23 09:21:21;;;;;;;0.00;0.00;;;;;;;;;;4976998;28;20870;-70
2023/10/23 09:23:54;;;;;;;0.00;0.00;;;;;;;;;;4984086;28;20038;-70
2023/10/23 09:26:20;;;;;;;0.00;0.00;;;;;;;;;;4978733;28;20046;-70
2023/10/23 09:28:49;;;;;;;0.00;0.00;;;;;;;;;;4978280;28;20027;-70
2023/10/23 09:31:15;;;;;;;0.00;0.00;;;;;;;;;;4975875;28;20164;-70
2023/10/23 09:33:41;;;;;;;0.00;0.00;;;;;;;;;;4980102;28;20133;-70
2023/10/23 09:36:08;;;;;;;0.00;0.00;;;;;;;;;;4978930;28;20057;-70
2023/10/23 09:38:35;;;;;;;0.00;0.00;;;;;;;;;;4978051;28;20110;-70
2023/10/23 09:41:01;;;;;;;0.00;0.00;;;;;;;;;;4985629;28;20045;-71
2023/10/23 09:43:27;;;;;;;0.00;0.00;;;;;;;;;;4981397;28;20046;-70
2023/10/23 09:45:53;;;;;;;0.00;0.00;;;;;;;;;;4983691;28;20423;-70
2023/10/23 09:48:23;;;;;;;0.00;0.00;;;;;;;;;;4974049;28;20034;-70
2023/10/23 09:50:49;;;;;;;0.00;0.00;;;;;;;;;;4979024;28;20117;-70
2023/10/23 09:53:19;;;;;;;0.00;0.00;;;;;;;;;;4987332;28;20388;-70
2023/10/23 09:55:46;;;;;;;0.00;0.00;;;;;;;;;;4992275;28;20481;-71
2023/10/23 09:58:15;;;;;;;0.00;0.00;;;;;;;;;;4978037;28;20034;-70
2023/10/23 10:00:45;;;;;;;0.00;0.00;;;;;;;;;;4978084;28;20094;-70
2023/10/23 10:03:12;;;;;;;0.00;0.00;;;;;;;;;;4993762;28;20140;-70
2023/10/23 10:05:42;;;;;;;0.00;0.00;;;;;;;;;;4979633;28;20050;-70
2023/10/23 10:08:09;;;;;;;0.00;0.00;;;;;;;;;;4979600;28;20778;-70
2023/10/23 10:10:36;;;;;;;0.00;0.00;;;;;;;;;;4978769;28;20376;-70
2023/10/23 10:13:06;;;;;;;0.00;0.00;;;;;;;;;;4980352;28;20046;-71
2023/10/23 10:15:32;;;;;;;0.00;0.00;;;;;;;;;;4980028;28;20133;-71
2023/10/23 10:17:58;;;;;;;0.00;0.00;;;;;;;;;;4978613;28;20045;-71
2023/10/23 10:20:24;;;;;;;0.00;0.00;;;;;;;;;;4979184;28;20038;-70
2023/10/23 10:22:57;;;;;;;0.00;0.00;;;;;;;;;;4977180;28;20208;-70
2023/10/23 10:25:24;;;;;;;0.00;0.00;;;;;;;;;;4979590;28;20042;-70
2023/10/23 10:28:03;;;;;;;0.00;0.00;;;;;;;;;;4978797;28;20054;-71
2023/10/23 10:30:49;;;;;;;0.00;0.00;;;;;;;;;;4975999;28;20798;-71
2023/10/23 10:33:21;;;;;;;0.00;0.00;;;;;;;;;;4983490;28;20062;-71
2023/10/23 10:35:51;;;;;;;0.00;0.00;;;;;;;;;;4976567;28;20069;-71
2023/10/23 10:38:23;;;;;;;0.00;0.00;;;;;;;;;;4973764;28;20104;-70
2023/10/23 10:40:59;;;;;;;0.00;0.00;;;;;;;;;;4976295;28;20046;-70
2023/10/23 10:43:29;;;;;;;0.00;0.00;;;;;;;;;;4984481;28;20493;-71
2023/10/23 10:45:55;;;;;;;0.00;0.00;;;;;;;;;;4977824;28;20058;-70
2023/10/23 10:48:22;;;;;;;0.00;0.00;;;;;;;;;;4980549;28;20520;-71
2023/10/23 10:50:48;;;;;;;0.00;0.00;;;;;;;;;;4978128;28;20030;-71
2023/10/23 10:53:15;;;;;;;0.00;0.00;;;;;;;;;;4975682;28;20043;-71
2023/10/23 10:55:42;;;;;;;0.00;0.00;;;;;;;;;;4979832;28;20031;-70
2023/10/23 10:58:10;;;;;;;0.00;0.00;;;;;;;;;;4978069;28;20104;-72
2023/10/23 11:00:37;;;;;;;0.00;0.00;;;;;;;;;;4979298;28;20038;-70
2023/10/23 11:03:04;;;;;;;0.00;0.00;;;;;;;;;;4980561;28;20104;-70
2023/10/23 11:05:30;;;;;;;0.00;0.00;;;;;;;;;;4977424;28;20041;-71
2023/10/23 11:07:56;;;;;;;0.00;0.00;;;;;;;;;;4977518;28;20050;-71
2023/10/23 11:10:22;;;;;;;0.00;0.00;;;;;;;;;;4976520;28;20096;-70
2023/10/23 11:12:49;;;;;;;0.00;0.00;;;;;;;;;;4978913;28;20058;-71
2023/10/23 11:15:16;;;;;;;0.00;0.00;;;;;;;;;;4975388;28;20046;-71
2023/10/23 11:17:42;;;;;;;0.00;0.00;;;;;;;;;;4979290;28;20130;-71
2023/10/23 11:20:12;;;;;;;0.00;0.00;;;;;;;;;;4977740;28;20034;-70
2023/10/23 11:22:41;;;;;;;0.00;0.00;;;;;;;;;;4976426;28;20798;-70
2023/10/23 11:25:09;;;;;;;0.00;0.00;;;;;;;;;;4977701;28;20495;-71
2023/10/23 11:27:35;;;;;;;0.00;0.00;;;;;;;;;;4978990;28;20053;-71
2023/10/23 11:30:01;;;;;;;0.00;0.00;;;;;;;;;;4979552;28;20042;-72
2023/10/23 11:32:28;;;;;;;0.00;0.00;;;;;;;;;;4978482;28;20129;-71
2023/10/23 11:35:00;;;;;;;0.00;0.00;;;;;;;;;;4978878;28;20486;-72
2023/10/23 11:37:26;;;;;;;0.00;0.00;;;;;;;;;;4973715;28;20707;-71
2023/10/23 11:39:52;;;;;;;0.00;0.00;;;;;;;;;;4977940;28;20042;-72
2023/10/23 11:42:18;;;;;;;0.00;0.00;;;;;;;;;;4977305;28;20038;-71
2023/10/23 11:44:46;;;;;;;0.00;0.00;;;;;;;;;;4978141;28;20081;-72
2023/10/23 11:47:11;;;;;;;0.00;0.00;;;;;;;;;;4990117;28;20045;-71
2023/10/23 11:49:37;;;;;;;0.00;0.00;;;;;;;;;;4978215;28;20046;-71
2023/10/23 11:52:04;;;;;;;0.00;0.00;;;;;;;;;;4977743;28;20046;-71
2023/10/23 11:54:30;;;;;;;0.00;0.00;;;;;;;;;;4975061;28;20042;-71
2023/10/23 11:56:56;;;;;;;0.00;0.00;;;;;;;;;;4962574;28;20572;-71
2023/10/23 11:59:23;;;;;;;0.00;0.00;;;;;;;;;;4967921;28;20049;-72
2023/10/23 12:01:49;;;;;;;0.00;0.00;;;;;;;;;;4980203;28;20512;-72
2023/10/23 12:04:16;;;;;;;0.00;0.00;;;;;;;;;;4987743;28;20042;-72
2023/10/23 12:06:42;;;;;;;0.00;0.00;;;;;;;;;;4977479;28;20169;-71
2023/10/23 12:09:11;;;;;;;0.00;0.00;;;;;;;;;;4973596;28;20792;-72
2023/10/23 12:11:40;;;;;;;0.00;0.00;;;;;;;;;;4976618;28;20524;-71
2023/10/23 12:14:06;;;;;;;0.00;0.00;;;;;;;;;;4979130;28;20172;-72
2023/10/23 12:16:32;;;;;;;0.00;0.00;;;;;;;;;;4977702;28;20045;-71
2023/10/23 12:18:58;;;;;;;0.00;0.00;;;;;;;;;;4977153;28;20042;-73
2023/10/23 12:21:25;;;;;;;0.00;0.00;;;;;;;;;;4976205;28;20034;-71
2023/10/23 12:23:51;;;;;;;0.00;0.00;;;;;;;;;;4975247;28;20034;-72
2023/10/23 12:26:18;;;;;;;0.00;0.00;;;;;;;;;;4977073;28;20101;-72
2023/10/23 12:28:44;;;;;;;0.00;0.00;;;;;;;;;;4976734;28;20125;-73
2023/10/23 12:31:10;;;;;;;0.00;0.00;;;;;;;;;;4973715;28;20104;-72
2023/10/23 12:33:36;;;;;;;0.00;0.00;;;;;;;;;;4976500;28;20870;-72
2023/10/23 12:36:03;;;;;;;0.00;0.00;;;;;;;;;;4950733;28;20393;-72
2023/10/23 12:38:34;;;;;;;0.00;0.00;;;;;;;;;;4981670;28;20434;-70
2023/10/23 12:41:00;;;;;;;0.00;0.00;;;;;;;;;;4977948;28;20053;-70
2023/10/23 12:43:26;;;;;;;0.00;0.00;;;;;;;;;;4973464;28;20425;-69
2023/10/23 12:45:52;;;;;;;0.00;0.00;;;;;;;;;;4976396;28;20938;-70
2023/10/23 12:48:18;;;;;;;0.00;0.00;;;;;;;;;;4980330;28;20031;-71
2023/10/23 12:50:44;;;;;;;0.00;0.00;;;;;;;;;;4997731;28;20466;-71
2023/10/23 12:53:11;;;;;;;0.00;0.00;;;;;;;;;;4978338;28;20042;-72
2023/10/23 12:55:37;;;;;;;0.00;0.00;;;;;;;;;;4978488;28;20493;-72
2023/10/23 12:58:03;;;;;;;0.00;0.00;;;;;;;;;;4986610;28;20490;-72
2023/10/23 13:00:29;;;;;;;0.00;0.00;;;;;;;;;;4976401;28;20724;-71
2023/10/23 13:02:55;;;;;;;0.00;0.00;;;;;;;;;;4980013;28;20038;-72
2023/10/23 13:05:21;;;;;;;0.00;0.00;;;;;;;;;;4976763;28;20093;-72
2023/10/23 13:07:47;;;;;;;0.00;0.00;;;;;;;;;;4981760;28;20042;-70
2023/10/23 13:10:14;;;;;;;0.00;0.00;;;;;;;;;;4978736;28;20038;-71
2023/10/23 13:12:40;;;;;;;0.00;0.00;;;;;;;;;;4981891;28;20058;-71
2023/10/23 13:15:06;;;;;;;0.00;0.00;;;;;;;;;;4979453;28;20045;-71
2023/10/23 13:17:32;;;;;;;0.00;0.00;;;;;;;;;;4981514;28;20042;-71
2023/10/23 13:19:58;;;;;;;0.00;0.00;;;;;;;;;;4982058;28;20467;-70
2023/10/23 13:22:24;;;;;;;0.00;0.00;;;;;;;;;;4981246;28;20317;-71
2023/10/23 13:24:50;;;;;;;0.00;0.00;;;;;;;;;;4981889;28;20058;-71
2023/10/23 13:27:16;;;;;;;0.00;0.00;;;;;;;;;;4979465;28;20049;-72
2023/10/23 13:29:43;;;;;;;0.00;0.00;;;;;;;;;;4977802;28;20035;-71
2023/10/23 13:32:09;;;;;;;0.00;0.00;;;;;;;;;;4978352;28;20117;-71
2023/10/23 13:34:35;;;;;;;0.00;0.00;;;;;;;;;;4980411;28;20030;-72
2023/10/23 13:37:01;;;;;;;0.00;0.00;;;;;;;;;;4980531;28;20046;-72
2023/10/23 13:39:27;;;;;;;0.00;0.00;;;;;;;;;;4976963;28;20092;-72
2023/10/23 13:41:53;;;;;;;0.00;0.00;;;;;;;;;;4979938;28;20113;-71
2023/10/23 13:44:19;;;;;;;0.00;0.00;;;;;;;;;;4978757;28;20493;-71
2023/10/23 13:46:45;;;;;;;0.00;0.00;;;;;;;;;;4978573;28;20422;-70
2023/10/23 13:49:11;;;;;;;0.00;0.00;;;;;;;;;;4978866;28;20038;-70
2023/10/23 13:51:37;;;;;;;0.00;0.00;;;;;;;;;;4980443;28;20089;-70
2023/10/23 13:54:04;;;;;;;0.00;0.00;;;;;;;;;;4993825;28;20042;-69
2023/10/23 13:56:29;;;;;;;0.00;0.00;;;;;;;;;;4978196;28;20048;-70
2023/10/23 13:58:56;;;;;;;0.00;0.00;;;;;;;;;;4980415;28;20367;-69
2023/10/23 14:01:23;;;;;;;0.00;0.00;;;;;;;;;;4978590;28;20842;-70
2023/10/23 14:03:49;;;;;;;0.00;0.00;;;;;;;;;;4981098;28;20152;-70
2023/10/23 14:06:15;;;;;;;0.00;0.00;;;;;;;;;;4978952;28;20538;-70
2023/10/23 14:08:42;;;;;;;0.00;0.00;;;;;;;;;;4979195;28;20049;-70
2023/10/23 14:11:09;;;;;;;0.00;0.00;;;;;;;;;;4977054;28;20418;-70
2023/10/23 14:13:35;;;;;;;0.00;0.00;;;;;;;;;;4977239;28;20524;-70
2023/10/23 14:16:01;;;;;;;0.00;0.00;;;;;;;;;;4974708;28;20078;-69
2023/10/23 14:18:27;;;;;;;0.00;0.00;;;;;;;;;;4978236;28;20038;-69
2023/10/23 14:20:53;;;;;;;0.00;0.00;;;;;;;;;;4981214;28;20193;-70
2023/10/23 14:23:19;;;;;;;0.00;0.00;;;;;;;;;;4980124;28;20030;-70
2023/10/23 14:25:45;;;;;;;0.00;0.00;;;;;;;;;;4980819;28;20054;-70
2023/10/23 14:28:11;;;;;;;0.00;0.00;;;;;;;;;;4976395;28;20484;-70
2023/10/23 14:30:37;;;;;;;0.00;0.00;;;;;;;;;;4991780;28;20837;-69
2023/10/23 14:33:03;;;;;;;0.00;0.00;;;;;;;;;;4977707;28;20034;-69
2023/10/23 14:35:31;;;;;;;0.00;0.00;;;;;;;;;;4977972;28;20057;-69
2023/10/23 14:37:58;;;;;;;0.00;0.00;;;;;;;;;;4981497;28;20049;-70
2023/10/23 14:40:24;;;;;;;0.00;0.00;;;;;;;;;;4974252;28;20121;-70